Redwood Falls Municipal Airport
KRWF : now visible

Airfield :











YOU CAN JOIN US ON...

 
LOGIN :

Register | Disclaimer

   EN    FR    IT 

 









Legend :    VFR   Marginal VFR   IFR   Intensive IFR   Very Intensive IFR
Visi :
Ceiling :
>= 8 km
>= 3000ft
5 to 8 km
1000 to 3000 ft
1500m to 5 km
500 to 1000 ft
800 to 1500m
200 to 500 ft
< 800m
< 200 ft
Symbols :   Thunderstorms  Fog  Heavy snow  Heavy precipitations  Wind > 20 kt






- Airport Elevation : 1024 ft


KRWF - Redwood Falls Municipal

CURRENT METAR :
  • 171753Z AUTO 10014KT 10SM FEW049 23/09 A3010 RMK AO2 SLP193 T02280094 10233 20106 56008

EXPIRED METARs :
  • 171653Z AUTO 11011KT 10SM FEW043 22/11 A3011 RMK AO2 SLP196 T02170106
  • 171553Z AUTO 10010KT 10SM CLR 21/11 A3011 RMK AO2 SLP195 T02110106

TAF KRWF
Valid from the 17 at 18:00 until the 18 at 18:00 UTC


171735Z 1718/1818 12011KT P6SM FEW040
FM172000 12012G19KT P6SM SCT040
FM180400 11006KT P6SM SCT120
FM181300 12008KT P6SM BKN027
FM181600 13011G19KT P6SM BKN016
KZMP FIR / North America



MET'MAP, your aeronautical weather chart ! - Copyright ORBIFLY December 2007 - Disclaimer

ORBIFLY MET'MAP TEAM :

Programming & Development : Alexandra Zaïnal
Concept & original design : Baudouin d'Aumeries
Assistance for programming : Marc-Olivier Méhu
Technical & hardware support : Manuel Goepfert

Contact : metmap@orbifly.com




SOURCES & CREDITS :

   NOAA       Earth
Advisory